createdAt,value
2023-04-11T00:00:52.798Z,3.20
2023-04-11T00:03:19.487Z,3.30
2023-04-11T00:05:48.975Z,3.20
2023-04-11T00:08:15.829Z,3.20
2023-04-11T00:10:44.311Z,3.10
2023-04-11T00:13:12.067Z,3.10
2023-04-11T00:15:38.612Z,3.10
2023-04-11T00:18:06.260Z,3.20
2023-04-11T00:20:32.767Z,3.30
2023-04-11T00:22:59.216Z,3.40
2023-04-11T00:25:26.327Z,3.40
2023-04-11T00:27:53.367Z,3.40
2023-04-11T00:30:19.911Z,3.40
2023-04-11T00:32:47.060Z,3.50
2023-04-11T00:35:13.575Z,3.80
2023-04-11T00:37:43.576Z,3.90
2023-04-11T00:40:13.383Z,4.00
2023-04-11T00:42:40.235Z,4.00
2023-04-11T00:45:07.822Z,4.10
2023-04-11T00:47:35.309Z,4.00
2023-04-11T00:50:02.426Z,4.00
2023-04-11T00:52:29.002Z,4.00
2023-04-11T00:54:57.474Z,3.90
2023-04-11T00:57:25.273Z,3.70
2023-04-11T00:59:51.906Z,3.60
2023-04-11T01:02:18.613Z,3.30
2023-04-11T01:04:45.749Z,3.20
2023-04-11T01:07:14.237Z,3.10
2023-04-11T01:09:41.926Z,2.90
2023-04-11T01:12:10.932Z,2.70
2023-04-11T01:14:38.021Z,2.70
2023-04-11T01:17:04.606Z,2.70
2023-04-11T01:19:31.154Z,2.80
2023-04-11T01:22:00.900Z,3.00
2023-04-11T01:24:27.920Z,3.30
2023-04-11T01:26:56.068Z,3.50
2023-04-11T01:29:22.877Z,3.50
2023-04-11T01:31:51.101Z,3.60
2023-04-11T01:34:18.716Z,3.70
2023-04-11T01:36:45.437Z,3.70
2023-04-11T01:39:12.027Z,3.90
2023-04-11T01:41:41.185Z,3.90
2023-04-11T01:44:07.876Z,3.90
2023-04-11T01:46:35.127Z,3.90
2023-04-11T01:49:02.609Z,3.90
2023-04-11T01:51:29.214Z,3.70
2023-04-11T01:53:55.738Z,3.50
2023-04-11T01:56:22.264Z,3.40
2023-04-11T01:58:48.813Z,3.20
2023-04-11T02:01:19.461Z,3.00
2023-04-11T02:03:46.107Z,2.90
2023-04-11T02:06:14.136Z,3.00
2023-04-11T02:08:40.610Z,3.10
2023-04-11T02:11:07.422Z,3.20
2023-04-11T02:13:35.191Z,3.30
2023-04-11T02:16:17.236Z,3.40
2023-04-11T02:18:44.982Z,3.50
2023-04-11T02:21:11.866Z,3.60
2023-04-11T02:23:38.358Z,3.60
2023-04-11T02:26:05.021Z,3.70
2023-04-11T02:28:31.528Z,3.70
2023-04-11T02:30:58.154Z,3.60
2023-04-11T02:33:25.458Z,3.50
2023-04-11T02:35:52.130Z,3.30
2023-04-11T02:38:18.648Z,3.00
2023-04-11T02:40:45.107Z,2.90
2023-04-11T02:43:11.644Z,2.70
2023-04-11T02:45:38.110Z,2.80
2023-04-11T02:48:05.473Z,3.00
2023-04-11T02:50:31.965Z,3.20
2023-04-11T02:52:58.436Z,3.30
2023-04-11T02:55:25.019Z,3.50
2023-04-11T02:57:51.584Z,3.50
2023-04-11T03:00:21.305Z,3.40
2023-04-11T03:02:48.721Z,3.50
2023-04-11T03:05:15.977Z,3.50
2023-04-11T03:07:43.735Z,3.50
2023-04-11T03:10:10.512Z,3.40
2023-04-11T03:12:36.997Z,3.40
2023-04-11T03:15:03.921Z,3.40
2023-04-11T03:17:30.428Z,3.30
2023-04-11T03:19:56.944Z,3.20
2023-04-11T03:22:23.953Z,3.10
2023-04-11T03:24:50.531Z,3.10
2023-04-11T03:27:17.031Z,3.20
2023-04-11T03:29:43.524Z,3.20
2023-04-11T03:32:10.067Z,3.30
2023-04-11T03:34:36.550Z,3.20
2023-04-11T03:37:03.051Z,3.20
2023-04-11T03:39:29.571Z,3.30
2023-04-11T03:41:57.040Z,3.50
2023-04-11T03:44:23.537Z,3.50
2023-04-11T03:46:50.050Z,3.60
2023-04-11T03:49:16.561Z,3.70
2023-04-11T03:51:43.037Z,3.70
2023-04-11T03:54:09.608Z,3.80
2023-04-11T03:56:36.117Z,3.60
2023-04-11T03:59:02.592Z,3.60
2023-04-11T04:01:29.088Z,3.60
2023-04-11T04:03:56.129Z,3.60
2023-04-11T04:06:23.049Z,3.60
2023-04-11T04:08:49.578Z,3.50
2023-04-11T04:11:16.057Z,3.50
2023-04-11T04:13:42.537Z,3.60
2023-04-11T04:16:09.383Z,3.80
2023-04-11T04:18:35.906Z,3.90
2023-04-11T04:21:02.422Z,3.80
2023-04-11T04:23:29.286Z,3.70
2023-04-11T04:25:57.347Z,3.50
2023-04-11T04:28:25.363Z,3.40
2023-04-11T04:30:53.313Z,3.50
2023-04-11T04:33:23.100Z,3.50
2023-04-11T04:35:57.355Z,3.50
2023-04-11T04:38:25.341Z,3.50
2023-04-11T04:40:54.039Z,3.60
2023-04-11T04:43:23.609Z,3.60
2023-04-11T04:45:50.427Z,3.60
2023-04-11T04:48:16.917Z,3.70
2023-04-11T04:50:44.879Z,3.60
2023-04-11T04:53:11.344Z,3.50
2023-04-11T04:55:37.847Z,3.40
2023-04-11T04:58:04.305Z,3.30
2023-04-11T05:00:30.808Z,3.40
2023-04-11T05:02:57.543Z,3.40
2023-04-11T05:05:24.253Z,3.70
2023-04-11T05:07:50.844Z,3.90
2023-04-11T05:10:17.332Z,4.00
2023-04-11T05:12:43.884Z,4.10
2023-04-11T05:15:11.083Z,4.00
2023-04-11T05:17:37.913Z,4.00
2023-04-11T05:20:07.009Z,4.00
2023-04-11T05:22:33.466Z,4.00
2023-04-11T05:25:00.748Z,4.00
2023-04-11T05:27:27.218Z,4.10
2023-04-11T05:29:53.880Z,4.10
2023-04-11T05:32:20.405Z,4.20
2023-04-11T05:34:58.703Z,4.30
2023-04-11T05:37:25.704Z,4.40
2023-04-11T05:39:52.334Z,4.60
2023-04-11T05:42:18.796Z,4.70
2023-04-11T05:44:45.318Z,4.80
2023-04-11T05:47:14.349Z,5.10
2023-04-11T05:49:40.897Z,5.30
2023-04-11T05:52:07.364Z,5.50
2023-04-11T05:54:36.359Z,5.60
2023-04-11T05:57:03.177Z,5.60
2023-04-11T05:59:31.148Z,5.60
2023-04-11T06:02:01.306Z,5.70
2023-04-11T06:04:27.966Z,5.80
2023-04-11T06:06:56.179Z,5.80
2023-04-11T06:09:22.678Z,5.90
2023-04-11T06:11:49.177Z,6.00
2023-04-11T06:14:15.733Z,6.10
2023-04-11T06:16:42.203Z,6.20
2023-04-11T06:19:08.722Z,6.30
2023-04-11T06:21:35.238Z,6.40
2023-04-11T06:24:08.608Z,6.40
2023-04-11T06:26:35.223Z,6.40
2023-04-11T06:29:05.077Z,6.40
2023-04-11T06:31:32.491Z,6.40
2023-04-11T06:34:02.561Z,6.50
2023-04-11T06:36:29.922Z,6.60
2023-04-11T06:38:56.436Z,6.70
2023-04-11T06:41:23.279Z,7.00
2023-04-11T06:43:49.835Z,7.10
2023-04-11T06:46:16.389Z,7.20
2023-04-11T06:48:42.930Z,7.30
2023-04-11T06:51:09.784Z,7.40
2023-04-11T06:53:36.525Z,7.60
2023-04-11T06:56:03.105Z,7.70
2023-04-11T06:58:29.844Z,7.80
2023-04-11T07:00:56.341Z,7.90
2023-04-11T07:03:24.414Z,8.00
2023-04-11T07:05:51.046Z,8.10
2023-04-11T07:08:17.571Z,8.20
2023-04-11T07:10:44.077Z,8.40
2023-04-11T07:13:10.555Z,8.60
2023-04-11T07:15:37.109Z,8.70
2023-04-11T07:18:03.696Z,8.90
2023-04-11T07:20:32.170Z,9.00
2023-04-11T07:22:58.988Z,9.20
2023-04-11T07:25:32.761Z,9.40
2023-04-11T07:27:59.924Z,9.50
2023-04-11T07:30:27.858Z,9.80
2023-04-11T07:32:54.411Z,10.00
2023-04-11T07:35:21.748Z,10.20
2023-04-11T07:37:48.302Z,10.30
2023-04-11T07:40:14.872Z,10.40
2023-04-11T07:42:41.946Z,10.40
2023-04-11T07:45:08.846Z,10.40
2023-04-11T07:47:35.522Z,10.40
2023-04-11T07:50:02.602Z,10.40
2023-04-11T07:52:29.313Z,10.30
2023-04-11T07:54:55.864Z,10.30
2023-04-11T07:57:22.448Z,10.30
2023-04-11T07:59:48.951Z,10.20
2023-04-11T08:02:15.584Z,10.30
2023-04-11T08:04:42.405Z,10.30
2023-04-11T08:07:09.042Z,10.20
2023-04-11T08:09:35.535Z,10.30
2023-04-11T08:12:02.712Z,10.20
2023-04-11T08:14:29.204Z,10.20
2023-04-11T08:16:55.801Z,10.10
2023-04-11T08:19:22.468Z,10.10
2023-04-11T08:21:49.053Z,10.30
2023-04-11T08:24:15.548Z,10.30
2023-04-11T08:26:42.044Z,10.40
2023-04-11T08:29:11.822Z,10.60
2023-04-11T08:31:44.802Z,10.70
2023-04-11T08:34:12.059Z,10.70
2023-04-11T08:36:38.669Z,10.80
2023-04-11T08:39:05.923Z,10.70
2023-04-11T08:41:34.825Z,10.70
2023-04-11T08:44:01.279Z,10.70
2023-04-11T08:46:31.577Z,10.70
2023-04-11T08:48:58.189Z,10.70
2023-04-11T08:51:28.814Z,10.70
2023-04-11T08:54:03.579Z,10.70
2023-04-11T08:56:30.331Z,11.00
2023-04-11T08:58:57.017Z,11.00
2023-04-11T09:01:31.941Z,11.30
2023-04-11T09:04:01.435Z,11.40
2023-04-11T09:06:29.986Z,11.60
2023-04-11T09:09:07.405Z,11.70
2023-04-11T09:11:54.082Z,11.80
2023-04-11T09:14:26.051Z,11.90
2023-04-11T09:17:12.456Z,12.00
2023-04-11T09:19:45.591Z,12.20
2023-04-11T09:22:14.890Z,12.20
2023-04-11T09:24:42.251Z,12.10
2023-04-11T09:27:20.225Z,12.20
2023-04-11T09:29:48.329Z,12.10
2023-04-11T09:32:35.599Z,12.20
2023-04-11T09:35:23.478Z,12.30
2023-04-11T09:37:55.990Z,12.30
2023-04-11T09:40:40.808Z,12.50
2023-04-11T09:43:07.391Z,12.80
2023-04-11T09:45:40.975Z,13.00
2023-04-11T09:48:12.239Z,13.00
2023-04-11T09:50:41.434Z,13.10
2023-04-11T09:53:09.665Z,13.20
2023-04-11T09:55:38.991Z,13.10
2023-04-11T09:58:10.459Z,13.10
2023-04-11T10:00:38.026Z,13.20
2023-04-11T10:03:04.779Z,13.20
2023-04-11T10:05:32.109Z,13.40
2023-04-11T10:08:29.884Z,13.50
2023-04-11T10:11:01.284Z,13.60
2023-04-11T10:13:45.780Z,13.70
2023-04-11T10:16:21.743Z,13.80
2023-04-11T10:20:52.393Z,13.70
2023-04-11T10:23:18.906Z,13.80
2023-04-11T10:25:59.560Z,14.00
2023-04-11T10:28:39.238Z,14.30
2023-04-11T10:31:16.344Z,14.70
2023-04-11T10:34:14.236Z,15.10
2023-04-11T10:38:53.694Z,15.20
2023-04-11T10:41:27.900Z,15.50
2023-04-11T10:44:20.179Z,15.50
2023-04-11T10:46:54.342Z,15.50
2023-04-11T10:49:38.256Z,15.60
2023-04-11T10:52:23.604Z,15.60
2023-04-11T10:54:55.520Z,15.50
2023-04-11T10:57:22.338Z,15.40
2023-04-11T11:00:15.031Z,15.40
2023-04-11T11:02:41.757Z,15.60
2023-04-11T11:05:20.069Z,15.90
2023-04-11T11:07:51.542Z,16.10
2023-04-11T11:10:42.989Z,16.30
2023-04-11T11:13:10.161Z,16.60
2023-04-11T11:15:37.113Z,16.90
2023-04-11T11:18:07.050Z,17.20
2023-04-11T11:20:36.692Z,17.40
2023-04-11T11:23:09.521Z,17.50
2023-04-11T11:25:36.347Z,17.60
2023-04-11T11:28:08.743Z,17.60
2023-04-11T11:30:37.613Z,17.50
2023-04-11T11:33:18.673Z,17.30
2023-04-11T11:35:59.268Z,16.90
2023-04-11T11:38:29.524Z,16.70
2023-04-11T11:40:57.628Z,16.40
2023-04-11T11:43:28.306Z,16.10
2023-04-11T11:46:14.806Z,16.10
2023-04-11T11:49:06.271Z,16.00
2023-04-11T11:51:44.982Z,16.10
2023-04-11T11:54:11.918Z,16.30
2023-04-11T11:56:39.972Z,16.50
2023-04-11T11:59:07.741Z,16.80
2023-04-11T12:01:35.845Z,16.90
2023-04-11T12:04:07.065Z,16.90
2023-04-11T12:06:33.752Z,16.80
2023-04-11T12:09:14.876Z,16.80
2023-04-11T12:11:45.676Z,16.80
2023-04-11T12:14:22.828Z,16.90
2023-04-11T12:16:53.604Z,17.10
2023-04-11T12:19:20.091Z,17.10
2023-04-11T12:21:46.567Z,17.30
2023-04-11T12:24:13.192Z,17.30
2023-04-11T12:26:52.871Z,17.40
2023-04-11T12:29:29.192Z,17.50
2023-04-11T12:31:55.753Z,17.50
2023-04-11T12:34:22.250Z,17.60
2023-04-11T12:36:48.754Z,17.50
2023-04-11T12:39:15.504Z,17.30
2023-04-11T12:41:41.997Z,17.20
2023-04-11T12:44:08.493Z,17.20
2023-04-11T12:46:35.539Z,17.30
2023-04-11T12:49:02.050Z,17.40
2023-04-11T12:51:28.595Z,17.40
2023-04-11T12:53:55.061Z,17.50
2023-04-11T12:56:21.859Z,17.60
2023-04-11T12:58:48.374Z,17.70
2023-04-11T13:01:15.708Z,17.70
2023-04-11T13:03:42.245Z,17.80
2023-04-11T13:06:09.270Z,18.10
2023-04-11T13:08:35.772Z,18.30
2023-04-11T13:11:02.283Z,18.10
2023-04-11T13:13:28.764Z,18.00
2023-04-11T13:15:55.318Z,17.80
2023-04-11T13:18:21.884Z,17.80
2023-04-11T13:20:48.389Z,17.70
2023-04-11T13:23:16.649Z,17.90
2023-04-11T13:25:43.939Z,18.00
2023-04-11T13:28:10.688Z,18.00
2023-04-11T13:30:37.189Z,18.10
2023-04-11T13:33:03.784Z,18.20
2023-04-11T13:35:30.342Z,18.30
2023-04-11T13:37:56.978Z,18.40
2023-04-11T13:40:23.477Z,18.50
2023-04-11T13:42:49.963Z,18.50
2023-04-11T13:45:16.424Z,18.60
2023-04-11T13:47:44.283Z,18.60
2023-04-11T13:50:10.850Z,18.40
2023-04-11T13:52:37.413Z,18.30
2023-04-11T13:55:04.913Z,18.30
2023-04-11T13:57:31.424Z,18.30
2023-04-11T13:59:57.915Z,18.20
2023-04-11T14:02:24.492Z,18.20
2023-04-11T14:04:51.284Z,18.20
2023-04-11T14:07:17.772Z,18.20
2023-04-11T14:09:44.721Z,18.20
2023-04-11T14:12:11.211Z,18.20
2023-04-11T14:14:37.756Z,18.10
2023-04-11T14:17:04.295Z,18.00
2023-04-11T14:19:30.784Z,17.90
2023-04-11T14:21:57.848Z,17.70
2023-04-11T14:24:24.440Z,17.50
2023-04-11T14:26:50.927Z,17.60
2023-04-11T14:29:17.615Z,17.60
2023-04-11T14:31:44.336Z,17.50
2023-04-11T14:34:10.889Z,17.50
2023-04-11T14:36:37.753Z,17.40
2023-04-11T14:39:04.596Z,17.40
2023-04-11T14:41:31.108Z,17.40
2023-04-11T14:43:57.861Z,17.30
2023-04-11T14:46:24.628Z,17.30
2023-04-11T14:48:51.157Z,17.20
2023-04-11T14:51:17.860Z,16.90
2023-04-11T14:53:49.432Z,16.60
2023-04-11T14:56:16.015Z,16.30
2023-04-11T14:58:42.473Z,16.00
2023-04-11T15:01:09.478Z,15.80
2023-04-11T15:03:36.107Z,15.70
2023-04-11T15:06:02.805Z,15.70
2023-04-11T15:08:29.305Z,15.50
2023-04-11T15:10:55.783Z,15.30
2023-04-11T15:13:22.462Z,15.20
2023-04-11T15:15:48.997Z,14.90
2023-04-11T15:18:21.984Z,14.80
2023-04-11T15:20:48.885Z,14.80
2023-04-11T15:23:15.621Z,14.60
2023-04-11T15:25:42.119Z,14.70
2023-04-11T15:28:08.907Z,14.70
2023-04-11T15:30:46.580Z,14.60
2023-04-11T15:33:13.467Z,14.40
2023-04-11T15:35:43.993Z,14.20
2023-04-11T15:38:12.341Z,14.20
2023-04-11T15:40:39.163Z,14.10
2023-04-11T15:43:06.140Z,14.00
2023-04-11T15:45:37.424Z,14.00
2023-04-11T15:48:04.368Z,13.90
2023-04-11T15:50:31.896Z,13.90
2023-04-11T15:52:58.812Z,13.80
2023-04-11T15:55:25.293Z,13.80
2023-04-11T15:57:52.218Z,13.80
2023-04-11T16:00:21.638Z,13.80
2023-04-11T16:02:49.605Z,13.90
2023-04-11T16:05:16.797Z,13.80
2023-04-11T16:07:43.291Z,13.60
2023-04-11T16:10:10.267Z,13.60
2023-04-11T16:12:37.160Z,13.60
2023-04-11T16:15:06.005Z,13.60
2023-04-11T16:17:32.802Z,13.50
2023-04-11T16:19:59.628Z,13.40
2023-04-11T16:22:26.096Z,13.30
2023-04-11T16:24:53.506Z,13.30
2023-04-11T16:27:20.061Z,13.20
2023-04-11T16:29:46.560Z,13.20
2023-04-11T16:32:13.068Z,13.10
2023-04-11T16:34:39.525Z,13.10
2023-04-11T16:37:06.036Z,13.00
2023-04-11T16:39:32.513Z,13.00
2023-04-11T16:41:59.004Z,13.00
2023-04-11T16:44:25.491Z,12.80
2023-04-11T16:46:52.002Z,12.80
2023-04-11T16:49:18.513Z,12.80
2023-04-11T16:51:44.999Z,12.70
2023-04-11T16:54:12.897Z,12.60
2023-04-11T16:56:39.953Z,12.70
2023-04-11T16:59:06.707Z,12.60
2023-04-11T17:01:33.247Z,12.60
2023-04-11T17:04:00.355Z,12.70
2023-04-11T17:06:27.256Z,12.70
2023-04-11T17:08:53.766Z,12.70
2023-04-11T17:11:20.260Z,12.80
2023-04-11T17:13:48.694Z,12.80
2023-04-11T17:16:18.891Z,12.80
2023-04-11T17:18:45.412Z,12.80
2023-04-11T17:21:11.941Z,12.90
2023-04-11T17:23:42.351Z,12.80
2023-04-11T17:26:11.905Z,12.70
2023-04-11T17:28:40.093Z,12.60
2023-04-11T17:31:14.961Z,12.40
2023-04-11T17:33:42.084Z,12.30
2023-04-11T17:36:10.781Z,12.10
2023-04-11T17:38:38.439Z,12.10
2023-04-11T17:41:14.382Z,12.00
2023-04-11T17:43:42.628Z,11.80
2023-04-11T17:46:09.464Z,11.60
2023-04-11T17:48:36.285Z,11.40
2023-04-11T17:51:07.335Z,11.30
2023-04-11T17:53:33.948Z,11.10
2023-04-11T17:56:04.912Z,10.80
2023-04-11T17:58:31.451Z,10.90
2023-04-11T18:00:57.957Z,10.90
2023-04-11T18:03:24.918Z,10.90
2023-04-11T18:05:53.101Z,10.90
2023-04-11T18:08:19.631Z,10.60
2023-04-11T18:10:46.130Z,10.50
2023-04-11T18:13:12.642Z,10.30
2023-04-11T18:15:39.170Z,10.20
2023-04-11T18:18:08.898Z,10.10
2023-04-11T18:20:35.390Z,9.90
2023-04-11T18:23:02.377Z,9.90
2023-04-11T18:25:29.300Z,9.70
2023-04-11T18:27:55.805Z,9.60
2023-04-11T18:30:22.386Z,9.70
2023-04-11T18:32:51.160Z,9.70
2023-04-11T18:35:18.433Z,9.70
2023-04-11T18:37:45.476Z,9.80
2023-04-11T18:40:13.602Z,10.20
2023-04-11T18:42:46.052Z,10.70
2023-04-11T18:45:15.158Z,10.80
2023-04-11T18:47:42.188Z,11.00
2023-04-11T18:50:08.908Z,11.20
2023-04-11T18:52:35.649Z,11.40
2023-04-11T18:55:03.771Z,11.20
2023-04-11T18:57:33.698Z,10.90
2023-04-11T19:00:12.517Z,10.70
2023-04-11T19:02:41.063Z,10.30
2023-04-11T19:05:17.531Z,10.10
2023-04-11T19:07:44.984Z,9.80
2023-04-11T19:10:12.020Z,9.50
2023-04-11T19:12:38.871Z,9.30
2023-04-11T19:15:07.276Z,9.40
2023-04-11T19:17:40.053Z,9.20
2023-04-11T19:20:11.942Z,8.80
2023-04-11T19:22:41.347Z,8.60
2023-04-11T19:25:12.099Z,8.70
2023-04-11T19:27:40.731Z,8.70
2023-04-11T19:30:09.382Z,8.50
2023-04-11T19:32:37.827Z,8.40
2023-04-11T19:35:10.992Z,8.50
2023-04-11T19:37:38.288Z,8.50
2023-04-11T19:40:06.463Z,8.50
2023-04-11T19:42:36.074Z,8.50
2023-04-11T19:45:04.099Z,8.40
2023-04-11T19:47:30.841Z,8.20
2023-04-11T19:49:58.608Z,8.10
2023-04-11T19:52:25.524Z,8.10
2023-04-11T19:54:52.990Z,7.90
2023-04-11T19:57:19.802Z,7.70
2023-04-11T19:59:46.276Z,7.70
2023-04-11T20:02:13.128Z,7.70
2023-04-11T20:04:41.776Z,7.60
2023-04-11T20:07:08.525Z,7.60
2023-04-11T20:09:36.782Z,7.50
2023-04-11T20:12:05.455Z,7.50
2023-04-11T20:14:31.977Z,7.50
2023-04-11T20:17:01.250Z,7.50
2023-04-11T20:19:28.823Z,7.40
2023-04-11T20:21:55.532Z,7.20
2023-04-11T20:24:22.076Z,7.10
2023-04-11T20:26:48.706Z,7.10
2023-04-11T20:29:17.127Z,7.20
2023-04-11T20:31:44.005Z,7.10
2023-04-11T20:34:10.835Z,6.90
2023-04-11T20:36:37.376Z,6.80
2023-04-11T20:39:04.380Z,6.80
2023-04-11T20:41:34.053Z,6.70
2023-04-11T20:44:01.164Z,6.70
2023-04-11T20:46:28.962Z,6.70
2023-04-11T20:48:55.481Z,6.60
2023-04-11T20:51:21.978Z,6.50
2023-04-11T20:53:48.475Z,6.40
2023-04-11T20:56:14.981Z,6.40
2023-04-11T20:58:41.614Z,6.30
2023-04-11T21:01:08.190Z,6.20
2023-04-11T21:03:36.665Z,6.30
2023-04-11T21:06:06.681Z,6.30
2023-04-11T21:08:36.583Z,6.30
2023-04-11T21:11:04.812Z,6.40
2023-04-11T21:13:31.316Z,6.50
2023-04-11T21:15:57.912Z,6.20
2023-04-11T21:18:24.600Z,5.60
2023-04-11T21:20:51.117Z,5.40
2023-04-11T21:23:17.682Z,5.20
2023-04-11T21:25:44.172Z,5.00
2023-04-11T21:28:10.620Z,4.90
2023-04-11T21:30:38.645Z,4.80
2023-04-11T21:33:05.306Z,4.60
2023-04-11T21:35:31.854Z,4.50
2023-04-11T21:37:58.343Z,4.40
2023-04-11T21:40:24.809Z,4.40
2023-04-11T21:42:51.289Z,4.50
2023-04-11T21:45:17.917Z,4.60
2023-04-11T21:47:45.855Z,4.70
2023-04-11T21:50:12.437Z,4.80
2023-04-11T21:52:38.919Z,4.60
2023-04-11T21:55:08.833Z,4.60
2023-04-11T21:57:35.657Z,4.80
2023-04-11T22:00:02.975Z,5.20
2023-04-11T22:02:29.932Z,5.20
2023-04-11T22:07:29.613Z,5.10
2023-04-11T22:10:08.401Z,5.00
2023-04-11T22:12:35.907Z,4.90
2023-04-11T22:15:04.477Z,4.80
2023-04-11T22:17:31.728Z,4.90
2023-04-11T22:19:58.261Z,5.10
2023-04-11T22:22:31.573Z,5.30
2023-04-11T22:24:59.548Z,5.10
2023-04-11T22:27:26.511Z,4.80
2023-04-11T22:29:56.772Z,4.80
2023-04-11T22:32:23.873Z,4.70
2023-04-11T22:34:50.405Z,4.80
2023-04-11T22:37:16.936Z,4.70
2023-04-11T22:39:43.465Z,4.50
2023-04-11T22:42:10.843Z,4.30
2023-04-11T22:44:37.380Z,4.20
2023-04-11T22:47:12.584Z,4.30
2023-04-11T22:49:42.112Z,4.40
2023-04-11T22:52:13.323Z,4.60
2023-04-11T22:54:40.344Z,4.60
2023-04-11T22:57:06.834Z,4.50
2023-04-11T22:59:33.325Z,4.20
2023-04-11T23:01:59.895Z,4.10
2023-04-11T23:04:26.485Z,4.00
2023-04-11T23:06:53.106Z,4.10
2023-04-11T23:09:20.568Z,4.20
2023-04-11T23:11:48.006Z,4.30
2023-04-11T23:14:17.191Z,4.40
2023-04-11T23:16:44.377Z,4.30
2023-04-11T23:19:11.777Z,4.30
2023-04-11T23:21:38.318Z,4.40
2023-04-11T23:24:06.161Z,4.40
2023-04-11T23:26:32.735Z,4.20
2023-04-11T23:29:04.967Z,4.30
2023-04-11T23:31:31.844Z,4.20
2023-04-11T23:33:58.752Z,4.20
2023-04-11T23:36:29.348Z,4.30
2023-04-11T23:38:56.011Z,4.30
2023-04-11T23:41:23.243Z,4.30
2023-04-11T23:43:49.720Z,4.20
2023-04-11T23:46:17.254Z,4.30
2023-04-11T23:48:44.101Z,4.20
2023-04-11T23:51:10.612Z,4.10
2023-04-11T23:53:37.252Z,4.00
2023-04-11T23:56:04.240Z,3.90
2023-04-11T23:58:30.718Z,4.00
